Time;durP1;ratioP1;P1;durP2;ratioP2;P2;SDS_P1;SDS_P2;PMS_P1;PMS_P2;Temp;Humidity;BMP_temperature;BMP_pressure;BME280_temperature;BME280_humidity;BME280_pressure;Samples;Min_cycle;Max_cycle;Signal;HPM_P1;HPM_P2
2023/06/04 00:00:19;;;;;;;7.63;4.50;;;11.60;1.00;12.30;94163.00;;;;7397091;19;20633;-86
2023/06/04 00:02:53;;;;;;;7.40;4.65;;;11.50;1.00;12.30;94162.00;;;;7399601;19;20142;-88
2023/06/04 00:05:25;;;;;;;7.15;4.43;;;11.40;1.00;12.40;94189.00;;;;7398512;19;20664;-87
2023/06/04 00:08:06;;;;;;;8.82;4.43;;;11.50;1.00;12.40;94125.00;;;;7399877;19;20152;-88
2023/06/04 00:10:43;;;;;;;9.13;4.90;;;11.40;1.00;12.30;94152.00;;;;7398755;19;20145;-92
2023/06/04 00:13:11;;;;;;;8.45;5.07;;;11.40;1.00;12.30;94152.00;;;;7403552;19;20160;-92
2023/06/04 00:15:45;;;;;;;5.93;4.55;;;11.30;1.00;12.20;94140.00;;;;7400914;19;20461;-86
2023/06/04 00:18:13;;;;;;;8.05;5.20;;;11.20;10.30;12.20;94143.00;;;;7394804;19;20144;-86
2023/06/04 00:20:47;;;;;;;8.40;4.78;;;11.10;5.20;12.00;94163.00;;;;7393777;19;20142;-86
2023/06/04 00:23:21;;;;;;;6.35;4.60;;;11.10;9.40;12.00;94155.00;;;;7398619;19;20178;-87
2023/06/04 00:26:04;;;;;;;7.45;4.65;;;11.10;16.70;12.10;94124.00;;;;7393221;19;20154;-87
2023/06/04 00:28:32;;;;;;;6.65;4.50;;;11.10;10.40;12.10;94168.00;;;;7396110;19;20605;-87
2023/06/04 00:31:07;;;;;;;9.23;4.63;;;11.10;9.90;12.20;94162.00;;;;7394120;19;20140;-88
2023/06/04 00:33:40;;;;;;;11.43;4.70;;;11.10;2.00;12.20;94165.00;;;;7394180;19;20153;-89
2023/06/04 00:36:16;;;;;;;10.18;5.15;;;11.10;1.00;12.20;94133.00;;;;7390611;19;20132;-87
2023/06/04 00:38:43;;;;;;;6.63;4.57;;;11.10;4.10;12.50;94181.00;;;;7386985;19;20133;-87
2023/06/04 00:41:18;;;;;;;7.47;5.53;;;11.20;1.00;12.50;94125.00;;;;7388068;19;20129;-88
2023/06/04 00:43:56;;;;;;;7.00;4.70;;;11.20;1.00;12.40;94169.00;;;;7391799;19;20125;-88
2023/06/04 00:46:31;;;;;;;7.30;5.50;;;11.20;1.00;12.20;94111.00;;;;7391325;19;20613;-86
2023/06/04 00:49:01;;;;;;;6.15;4.85;;;11.10;1.00;12.10;94106.00;;;;7393700;19;20140;-87
2023/06/04 00:51:36;;;;;;;6.65;4.72;;;11.00;1.00;12.00;94188.00;;;;7393785;19;20132;-88
2023/06/04 00:54:08;;;;;;;8.60;5.25;;;10.90;4.70;12.00;94159.00;;;;7392675;19;20580;-86
2023/06/04 00:56:44;;;;;;;6.10;4.88;;;10.90;26.30;11.80;94156.00;;;;7392879;19;20179;-87
2023/06/04 00:59:17;;;;;;;8.98;5.18;;;10.80;36.60;11.70;94177.00;;;;7394941;19;20129;-86
2023/06/04 01:02:11;;;;;;;9.23;5.45;;;10.60;46.80;11.70;94184.00;;;;7396897;19;20132;-85
2023/06/04 01:05:03;;;;;;;9.20;4.85;;;10.60;67.10;11.70;94193.00;;;;7381599;19;20127;-76
2023/06/04 01:07:40;;;;;;;9.40;5.10;;;10.50;75.70;11.80;94183.00;;;;7386292;19;20164;-76
2023/06/04 01:10:15;;;;;;;8.10;5.15;;;10.60;70.40;11.70;94195.00;;;;7387755;19;20136;-77
2023/06/04 01:12:43;;;;;;;7.13;4.80;;;10.50;61.20;11.70;94200.00;;;;7386861;19;20147;-76
2023/06/04 01:15:18;;;;;;;13.35;4.85;;;10.50;77.90;11.60;94161.00;;;;7387617;19;20136;-75
2023/06/04 01:17:51;;;;;;;11.55;5.35;;;10.40;89.10;11.70;94176.00;;;;7385645;19;20133;-75
2023/06/04 01:20:44;;;;;;;8.88;5.68;;;10.50;94.00;11.60;94188.00;;;;7385021;19;20151;-76
2023/06/04 01:23:42;;;;;;;10.52;5.22;;;10.40;95.60;11.50;94197.00;;;;7386861;19;20605;-75
2023/06/04 01:26:16;;;;;;;6.45;4.80;;;10.30;99.90;11.50;94178.00;;;;7386807;19;20173;-75
2023/06/04 01:28:51;;;;;;;8.18;5.22;;;10.30;99.90;11.40;94178.00;;;;7382111;19;20600;-77
2023/06/04 01:31:25;;;;;;;9.05;5.25;;;10.20;99.90;11.40;94183.00;;;;7385858;19;20117;-75
2023/06/04 01:33:55;;;;;;;9.10;4.70;;;10.20;99.90;11.40;94181.00;;;;7386724;19;20125;-75
2023/06/04 01:36:29;;;;;;;9.30;5.33;;;10.10;99.90;11.30;94172.00;;;;7385545;19;20125;-76
2023/06/04 01:38:58;;;;;;;7.23;5.37;;;10.20;99.90;11.40;94192.00;;;;7382980;19;20765;-76
2023/06/04 01:41:31;;;;;;;10.80;5.80;;;10.20;99.90;11.30;94189.00;;;;7385245;19;20131;-76
2023/06/04 01:43:58;;;;;;;9.35;5.15;;;10.20;99.90;11.30;94176.00;;;;7386204;19;20145;-76
2023/06/04 01:46:32;;;;;;;7.50;4.63;;;10.20;99.90;11.10;94181.00;;;;7383694;19;20553;-76
2023/06/04 01:49:00;;;;;;;6.53;5.00;;;10.20;99.90;11.00;94155.00;;;;7384302;19;20148;-76
2023/06/04 01:51:34;;;;;;;10.93;4.88;;;10.10;99.90;11.00;94154.00;;;;7387001;19;20135;-76
2023/06/04 01:54:09;;;;;;;10.73;5.05;;;10.00;99.90;11.00;94176.00;;;;7384454;19;20587;-76
2023/06/04 01:56:36;;;;;;;7.83;4.87;;;10.00;99.90;10.90;94169.00;;;;7386563;19;20162;-75
2023/06/04 01:59:11;;;;;;;6.83;4.70;;;10.00;99.90;11.10;94182.00;;;;7383904;19;20132;-75
2023/06/04 02:01:39;;;;;;;7.23;4.73;;;10.00;99.90;11.10;94183.00;;;;7381388;19;20652;-76
2023/06/04 02:04:21;;;;;;;7.20;4.60;;;10.00;99.90;11.10;94163.00;;;;7381984;19;20161;-76
2023/06/04 02:06:59;;;;;;;5.20;4.43;;;10.10;99.90;11.00;94178.00;;;;7383975;19;20144;-76
2023/06/04 02:09:33;;;;;;;8.30;5.07;;;10.00;99.90;11.00;94177.00;;;;7385656;19;20612;-76
2023/06/04 02:12:07;;;;;;;7.73;5.47;;;9.90;99.90;11.00;94189.00;;;;7383973;19;20147;-77
2023/06/04 02:14:44;;;;;;;12.47;5.00;;;9.90;99.90;10.90;94182.00;;;;7382987;19;20144;-76
2023/06/04 02:17:19;;;;;;;11.33;5.10;;;9.90;99.90;10.80;94188.00;;;;7383628;19;20565;-76
2023/06/04 02:19:54;;;;;;;9.80;5.13;;;9.70;99.90;10.70;94181.00;;;;7387129;19;20128;-76
2023/06/04 02:22:27;;;;;;;5.70;4.63;;;9.70;99.90;10.70;94171.00;;;;7381361;19;20144;-76
2023/06/04 02:24:55;;;;;;;7.53;4.27;;;9.70;99.90;10.60;94170.00;;;;7384239;19;20525;-76
2023/06/04 02:27:28;;;;;;;6.53;4.70;;;9.60;99.90;10.60;94193.00;;;;7384107;19;20157;-76
2023/06/04 02:29:56;;;;;;;8.50;4.47;;;9.60;99.90;10.50;94184.00;;;;7383735;19;20140;-76
2023/06/04 02:32:29;;;;;;;7.30;4.80;;;9.70;99.90;10.50;94199.00;;;;7382439;19;20137;-76
2023/06/04 02:35:04;;;;;;;5.93;4.13;;;9.60;99.90;10.50;94188.00;;;;7381255;19;20155;-75
2023/06/04 02:37:38;;;;;;;6.00;4.40;;;9.60;99.90;10.50;94192.00;;;;7384603;19;20440;-76
2023/06/04 02:40:11;;;;;;;6.43;4.20;;;9.60;99.90;10.40;94194.00;;;;7383974;19;20125;-76
2023/06/04 02:42:39;;;;;;;9.67;4.50;;;9.60;99.90;10.40;94180.00;;;;7383286;19;20121;-76
2023/06/04 02:45:14;;;;;;;6.23;4.27;;;9.50;99.90;10.40;94173.00;;;;7384543;19;20139;-75
2023/06/04 02:47:41;;;;;;;8.07;4.33;;;9.50;99.90;10.60;94178.00;;;;7383072;19;20129;-75
2023/06/04 02:50:16;;;;;;;9.37;4.57;;;9.50;99.90;10.40;94189.00;;;;7383061;19;20144;-76
2023/06/04 02:52:43;;;;;;;10.30;4.83;;;9.50;99.90;10.50;94184.00;;;;7385740;19;20149;-75
2023/06/04 02:55:16;;;;;;;5.47;4.27;;;9.50;99.90;10.40;94190.00;;;;7383148;19;20131;-75
2023/06/04 02:57:51;;;;;;;7.43;4.43;;;9.40;99.90;10.40;94193.00;;;;7384059;19;20253;-75
2023/06/04 03:00:26;;;;;;;7.73;4.43;;;9.30;99.90;10.30;94182.00;;;;7381158;19;20128;-76
2023/06/04 03:03:00;;;;;;;7.57;4.63;;;9.30;99.90;10.20;94168.00;;;;7381075;19;20171;-75
2023/06/04 03:05:42;;;;;;;8.30;4.77;;;9.20;99.90;10.20;94182.00;;;;7381526;19;20215;-75
2023/06/04 03:08:10;;;;;;;10.53;5.33;;;9.10;99.90;10.30;94192.00;;;;7382976;19;20177;-76
2023/06/04 03:10:43;;;;;;;8.90;4.60;;;9.10;99.90;10.30;94173.00;;;;7384591;19;20117;-75
2023/06/04 03:13:11;;;;;;;5.33;4.23;;;9.10;99.90;10.20;94170.00;;;;7383027;19;20144;-75
2023/06/04 03:15:46;;;;;;;4.57;4.17;;;9.10;99.90;10.10;94190.00;;;;7383136;19;20455;-75
2023/06/04 03:18:13;;;;;;;8.90;4.27;;;9.10;99.90;10.20;94178.00;;;;7383360;19;20122;-75
2023/06/04 03:20:46;;;;;;;5.10;4.00;;;9.20;99.90;10.30;94197.00;;;;7381097;19;20608;-75
2023/06/04 03:23:14;;;;;;;8.67;4.27;;;9.20;99.90;10.20;94188.00;;;;7368629;19;20117;-75
2023/06/04 03:25:48;;;;;;;7.23;3.90;;;9.20;99.90;10.20;94198.00;;;;7377901;19;20592;-75
2023/06/04 03:28:15;;;;;;;4.47;3.57;;;9.20;99.90;10.10;94199.00;;;;7383587;19;20192;-75
2023/06/04 03:30:49;;;;;;;5.87;4.00;;;9.20;99.90;9.90;94188.00;;;;7383238;19;20125;-75
2023/06/04 03:33:16;;;;;;;5.23;3.80;;;9.10;99.90;10.00;94196.00;;;;7380661;19;20664;-77
2023/06/04 03:35:52;;;;;;;5.13;3.93;;;9.10;99.90;10.10;94192.00;;;;7383897;19;20184;-77
2023/06/04 03:38:20;;;;;;;15.50;4.00;;;9.10;99.90;10.10;94191.00;;;;7381158;19;20129;-77
2023/06/04 03:40:54;;;;;;;6.10;3.80;;;9.00;99.90;10.20;94170.00;;;;7383148;19;20124;-76
2023/06/04 03:43:21;;;;;;;7.23;3.80;;;9.10;99.90;10.30;94188.00;;;;7379261;19;20573;-76
2023/06/04 03:46:01;;;;;;;6.40;3.70;;;9.10;99.90;10.20;94203.00;;;;7381270;19;20216;-76
2023/06/04 03:48:28;;;;;;;6.30;3.50;;;9.10;99.90;10.20;94186.00;;;;7381719;19;20207;-76
2023/06/04 03:51:02;;;;;;;6.40;3.67;;;9.10;99.90;10.10;94187.00;;;;7383748;19;20129;-76
2023/06/04 03:53:29;;;;;;;6.40;3.70;;;9.10;99.90;10.10;94206.00;;;;7383752;19;20470;-76
2023/06/04 03:56:02;;;;;;;7.20;3.80;;;9.10;99.90;10.10;94183.00;;;;7379139;19;20141;-77
2023/06/04 03:58:37;;;;;;;6.27;3.47;;;9.10;99.90;10.00;94209.00;;;;7384809;19;20143;-77
2023/06/04 04:01:10;;;;;;;5.47;3.37;;;9.20;99.90;10.00;94218.00;;;;7380454;19;20505;-77
2023/06/04 04:03:38;;;;;;;5.23;3.40;;;9.20;99.90;10.10;94195.00;;;;7378684;19;20644;-76
2023/06/04 04:06:18;;;;;;;8.73;3.30;;;9.20;99.90;10.10;94205.00;;;;7383692;19;20457;-76
2023/06/04 04:08:46;;;;;;;5.60;3.50;;;9.20;99.90;10.20;94193.00;;;;7381125;19;20129;-76
2023/06/04 04:11:19;;;;;;;5.73;3.23;;;9.10;99.90;10.20;94214.00;;;;7383221;19;20121;-76
2023/06/04 04:13:47;;;;;;;9.23;3.67;;;9.20;99.90;10.20;94214.00;;;;7379046;19;20261;-76
2023/06/04 04:16:21;;;;;;;6.27;3.47;;;9.20;99.90;10.20;94195.00;;;;7384283;19;21272;-76
2023/06/04 04:18:49;;;;;;;5.50;3.30;;;9.30;99.90;10.20;94201.00;;;;7387758;19;20129;-76
2023/06/04 04:21:24;;;;;;;8.80;3.87;;;9.30;99.90;10.10;94171.00;;;;7390149;19;20472;-76
2023/06/04 04:23:52;;;;;;;4.67;3.17;;;9.30;99.90;10.20;94211.00;;;;7386945;19;20822;-76
2023/06/04 04:26:27;;;;;;;5.03;2.87;;;9.30;99.90;10.40;94201.00;;;;7386413;19;20612;-76
2023/06/04 04:29:01;;;;;;;7.10;3.00;;;9.40;99.90;10.50;94191.00;;;;7387948;19;20129;-76
2023/06/04 04:31:36;;;;;;;4.40;3.23;;;9.40;99.90;10.70;94206.00;;;;7389008;19;20132;-76
2023/06/04 04:34:08;;;;;;;11.40;3.10;;;9.50;99.90;10.80;94213.00;;;;7387489;19;20178;-76
2023/06/04 04:36:42;;;;;;;4.00;2.93;;;9.60;95.60;11.00;94207.00;;;;7388180;19;20147;-74
2023/06/04 04:39:15;;;;;;;5.53;3.20;;;9.70;57.80;11.10;94208.00;;;;7390238;19;20119;-74
2023/06/04 04:41:43;;;;;;;4.82;3.00;;;9.80;27.30;11.30;94225.00;;;;7389096;19;20154;-74
2023/06/04 04:44:17;;;;;;;4.57;2.90;;;9.90;12.00;11.40;94218.00;;;;7386441;19;20630;-77
2023/06/04 04:46:50;;;;;;;4.28;2.63;;;10.10;10.50;11.60;94213.00;;;;7386906;19;20137;-76
2023/06/04 04:49:18;;;;;;;3.15;2.80;;;10.20;1.00;11.80;94197.00;;;;7389732;19;20128;-77
2023/06/04 04:51:51;;;;;;;8.17;2.43;;;10.30;1.00;11.90;94207.00;;;;7389056;19;20125;-77
2023/06/04 04:54:19;;;;;;;4.05;2.70;;;10.50;1.00;12.00;94204.00;;;;7387444;19;20141;-77
2023/06/04 04:56:53;;;;;;;4.63;2.50;;;10.60;1.00;12.10;94214.00;;;;7386593;19;20144;-77
2023/06/04 04:59:40;;;;;;;3.88;2.70;;;10.80;1.00;12.30;94204.00;;;;7388907;19;20149;-77
2023/06/04 05:02:15;;;;;;;4.50;2.83;;;10.90;1.00;12.50;94211.00;;;;7386402;19;20644;-77
2023/06/04 05:04:55;;;;;;;4.43;2.65;;;11.10;1.00;12.60;94214.00;;;;7389032;19;20741;-77
2023/06/04 05:07:29;;;;;;;3.20;2.38;;;11.30;1.00;12.80;94196.00;;;;7387205;19;20153;-77
2023/06/04 05:10:04;;;;;;;3.60;2.22;;;11.50;1.00;13.10;94216.00;;;;7385899;19;20148;-77
2023/06/04 05:12:32;;;;;;;5.57;2.80;;;11.70;1.00;13.20;94206.00;;;;7389346;19;20125;-78
2023/06/04 05:15:07;;;;;;;2.90;2.22;;;11.90;1.00;13.40;94193.00;;;;7387361;19;20826;-77
2023/06/04 05:17:35;;;;;;;6.30;2.70;;;12.10;1.00;13.60;94196.00;;;;7388252;19;20502;-77
2023/06/04 05:20:11;;;;;;;4.82;4.03;;;12.20;1.00;13.80;94221.00;;;;7385201;19;20158;-77
2023/06/04 05:22:39;;;;;;;4.32;2.08;;;12.40;1.00;13.90;94213.00;;;;7384912;19;20569;-77
2023/06/04 05:25:16;;;;;;;3.58;2.33;;;12.60;1.00;14.10;94214.00;;;;7388089;19;20128;-77
2023/06/04 05:27:50;;;;;;;4.43;2.40;;;12.80;1.00;14.20;94229.00;;;;7389365;19;20125;-77
2023/06/04 05:30:17;;;;;;;3.22;2.28;;;12.90;1.00;14.30;94217.00;;;;7386649;19;20537;-77
2023/06/04 05:32:53;;;;;;;4.50;2.33;;;13.10;1.00;14.50;94213.00;;;;7386773;19;20942;-77
2023/06/04 05:35:27;;;;;;;5.43;2.60;;;13.20;1.00;14.70;94231.00;;;;7388471;19;20132;-78
2023/06/04 05:38:01;;;;;;;4.90;2.35;;;13.40;1.00;14.80;94236.00;;;;7385771;19;20127;-77
2023/06/04 05:40:35;;;;;;;4.70;2.40;;;13.60;1.00;15.00;94243.00;;;;7384476;19;20160;-77
2023/06/04 05:43:02;;;;;;;4.28;2.88;;;13.90;1.00;15.20;94225.00;;;;7385845;19;20600;-77
2023/06/04 05:45:36;;;;;;;3.70;2.30;;;14.10;1.00;15.40;94244.00;;;;7385943;19;20145;-77
2023/06/04 05:48:04;;;;;;;4.65;2.40;;;14.30;1.00;15.70;94231.00;;;;7386381;19;20152;-77
2023/06/04 05:50:39;;;;;;;3.42;2.33;;;14.60;1.00;15.90;94234.00;;;;7386131;19;20144;-75
2023/06/04 05:53:06;;;;;;;6.88;3.00;;;14.80;1.00;16.20;94239.00;;;;7385317;19;20125;-76
2023/06/04 05:55:41;;;;;;;8.05;2.85;;;15.20;1.00;16.60;94209.00;;;;7377836;19;20153;-76
2023/06/04 05:58:15;;;;;;;5.00;2.03;;;15.70;1.00;16.80;94236.00;;;;7386890;19;20133;-76
2023/06/04 06:00:50;;;;;;;3.35;2.35;;;16.10;1.00;16.60;94240.00;;;;7385923;19;20135;-76
2023/06/04 06:03:30;;;;;;;3.25;2.13;;;16.70;1.00;17.20;94250.00;;;;7383622;19;20679;-76
2023/06/04 06:06:06;;;;;;;3.55;2.17;;;17.10;1.00;17.50;94247.00;;;;7386813;19;20150;-75
2023/06/04 06:08:40;;;;;;;3.13;2.17;;;17.40;1.00;17.60;94243.00;;;;7385268;19;20170;-76
2023/06/04 06:11:07;;;;;;;3.95;2.58;;;17.20;1.00;17.60;94227.00;;;;7388479;19;20609;-76
2023/06/04 06:13:41;;;;;;;4.55;2.28;;;17.30;1.00;18.00;94245.00;;;;7386842;19;20247;-76
2023/06/04 06:16:16;;;;;;;3.38;2.35;;;17.30;1.00;18.20;94257.00;;;;7385786;19;20165;-75
2023/06/04 06:18:44;;;;;;;8.25;3.72;;;17.50;1.00;18.80;94253.00;;;;7354185;19;20593;-76
2023/06/04 06:21:18;;;;;;;4.60;2.55;;;17.60;1.00;18.70;94258.00;;;;7267186;19;2004579;-75
2023/06/04 06:23:45;;;;;;;3.08;2.22;;;17.90;1.00;19.00;94243.00;;;;7368150;19;20260;-76
2023/06/04 06:26:19;;;;;;;4.38;2.33;;;18.00;1.00;19.10;94259.00;;;;7369978;19;20145;-76
2023/06/04 06:28:47;;;;;;;3.72;2.95;;;18.10;1.00;19.60;94248.00;;;;7366784;19;20601;-76
2023/06/04 06:31:21;;;;;;;4.55;2.42;;;18.20;1.00;19.90;94260.00;;;;7369618;19;20128;-76
2023/06/04 06:34:02;;;;;;;4.50;2.15;;;18.40;1.00;20.30;94272.00;;;;7371863;19;20127;-75
2023/06/04 06:36:44;;;;;;;8.30;2.83;;;18.40;1.00;20.50;94273.00;;;;7370829;19;20147;-75
2023/06/04 06:39:18;;;;;;;7.82;2.60;;;18.60;1.00;20.70;94280.00;;;;7366547;19;20125;-75
2023/06/04 06:41:52;;;;;;;5.30;2.58;;;18.60;1.00;21.30;94248.00;;;;7370834;19;20603;-76
2023/06/04 06:44:20;;;;;;;4.38;2.70;;;18.70;1.00;21.60;94273.00;;;;7371244;19;20600;-75
2023/06/04 06:46:54;;;;;;;10.27;2.60;;;18.70;1.00;21.70;94267.00;;;;7369557;19;20504;-75
2023/06/04 06:49:22;;;;;;;4.10;2.60;;;18.70;1.00;21.90;94256.00;;;;7366631;19;20500;-76
2023/06/04 06:51:56;;;;;;;3.35;2.38;;;18.80;1.00;21.60;94263.00;;;;7368574;19;20512;-75
2023/06/04 06:54:30;;;;;;;4.95;2.28;;;18.80;1.00;21.40;94275.00;;;;7369329;19;20148;-75
2023/06/04 06:57:08;;;;;;;6.93;2.75;;;18.90;1.00;21.40;94279.00;;;;7369357;19;20151;-76
2023/06/04 06:59:42;;;;;;;3.75;2.40;;;19.00;1.00;21.10;94276.00;;;;7366300;19;20148;-76
2023/06/04 07:02:16;;;;;;;3.50;2.38;;;18.90;1.00;20.70;94257.00;;;;7369256;19;20274;-77
2023/06/04 07:04:51;;;;;;;7.13;2.80;;;18.80;1.00;20.30;94264.00;;;;7372418;19;20605;-75
2023/06/04 07:07:27;;;;;;;5.43;2.72;;;18.70;1.00;20.20;94284.00;;;;7369873;19;20137;-74
2023/06/04 07:09:55;;;;;;;4.88;2.55;;;18.60;1.00;19.90;94288.00;;;;7362930;19;20141;-74
2023/06/04 07:12:29;;;;;;;7.03;2.60;;;18.70;1.00;20.00;94292.00;;;;7365707;19;21176;-75
2023/06/04 07:15:03;;;;;;;5.40;3.17;;;18.60;1.00;20.00;94290.00;;;;7370851;19;20594;-75
2023/06/04 07:17:38;;;;;;;5.50;2.92;;;18.60;1.00;20.40;94290.00;;;;7368699;19;20141;-75
2023/06/04 07:20:07;;;;;;;4.78;2.25;;;18.70;1.00;20.40;94290.00;;;;7366994;19;20144;-74
2023/06/04 07:22:42;;;;;;;4.18;2.83;;;18.70;1.00;20.10;94293.00;;;;7366985;19;20141;-74
2023/06/04 07:25:16;;;;;;;4.65;2.60;;;18.80;1.00;20.10;94287.00;;;;7368183;19;21597;-74
2023/06/04 07:27:43;;;;;;;8.85;3.45;;;18.90;1.00;20.60;94287.00;;;;7367614;19;20139;-74
2023/06/04 07:30:18;;;;;;;6.03;2.75;;;18.90;1.00;20.40;94297.00;;;;7365645;19;20152;-73
2023/06/04 07:32:49;;;;;;;6.15;3.00;;;18.90;1.00;20.50;94280.00;;;;7364125;19;20125;-73
2023/06/04 07:35:23;;;;;;;5.07;2.90;;;19.00;1.00;20.80;94273.00;;;;7367600;19;20121;-74
2023/06/04 07:37:51;;;;;;;3.28;2.47;;;19.20;1.00;21.20;94287.00;;;;7368354;19;20167;-74
2023/06/04 07:40:25;;;;;;;4.32;2.85;;;19.30;1.00;21.20;94286.00;;;;7369759;19;20129;-73
2023/06/04 07:42:52;;;;;;;4.65;2.85;;;19.30;1.00;21.20;94284.00;;;;7370391;19;20831;-75
2023/06/04 07:45:28;;;;;;;11.07;3.47;;;19.50;1.00;21.40;94295.00;;;;7371999;19;20137;-74
2023/06/04 07:48:03;;;;;;;6.57;3.22;;;19.60;1.00;21.40;94299.00;;;;7369032;19;20133;-76
2023/06/04 07:50:38;;;;;;;8.65;3.53;;;19.60;1.00;21.50;94299.00;;;;7369943;19;20128;-77
2023/06/04 07:53:12;;;;;;;5.18;2.85;;;19.60;1.00;21.40;94291.00;;;;7377293;19;20136;-75
2023/06/04 07:55:40;;;;;;;4.10;3.17;;;19.60;1.00;21.10;94284.00;;;;7375564;19;20148;-73
2023/06/04 07:58:07;;;;;;;5.03;3.30;;;19.80;1.00;20.90;94286.00;;;;7373940;19;20144;-74
2023/06/04 08:00:42;;;;;;;5.70;3.45;;;19.90;1.00;21.50;94286.00;;;;7372399;19;20472;-74
2023/06/04 08:03:10;;;;;;;4.32;3.20;;;20.00;1.00;21.60;94290.00;;;;7373740;19;20180;-74
2023/06/04 08:05:50;;;;;;;4.68;3.63;;;20.10;1.00;21.70;94261.00;;;;7372629;19;20166;-74
2023/06/04 08:08:18;;;;;;;8.30;3.67;;;20.20;1.00;21.60;94297.00;;;;7376050;19;20135;-74
2023/06/04 08:10:52;;;;;;;5.03;3.08;;;20.40;1.00;22.30;94289.00;;;;7374074;19;20229;-74
2023/06/04 08:13:27;;;;;;;5.70;3.10;;;20.50;1.00;22.10;94281.00;;;;7371690;19;20152;-74
2023/06/04 08:16:01;;;;;;;4.15;3.20;;;20.60;1.00;22.20;94269.00;;;;7376108;19;20164;-75
2023/06/04 08:18:28;;;;;;;3.63;3.25;;;20.70;1.00;22.10;94277.00;;;;7376095;19;20152;-73
2023/06/04 08:21:03;;;;;;;5.03;3.30;;;20.70;1.00;22.30;94284.00;;;;7374662;19;20140;-75
2023/06/04 08:23:38;;;;;;;6.15;3.20;;;20.80;1.00;22.50;94281.00;;;;7363284;19;20657;-74
2023/06/04 08:26:12;;;;;;;5.57;3.60;;;21.00;1.00;22.70;94294.00;;;;7372780;19;20216;-75
2023/06/04 08:28:39;;;;;;;7.55;3.17;;;21.10;1.00;22.30;94299.00;;;;7369999;19;20137;-76
2023/06/04 08:31:13;;;;;;;10.63;3.22;;;21.20;1.00;22.10;94285.00;;;;7369857;19;20166;-77
2023/06/04 08:33:41;;;;;;;6.20;3.10;;;21.00;1.40;22.40;94297.00;;;;7373921;19;20125;-74
2023/06/04 08:36:16;;;;;;;6.70;3.20;;;21.00;1.00;23.20;94288.00;;;;7375047;19;20263;-74
2023/06/04 08:38:43;;;;;;;10.07;3.50;;;21.10;1.00;23.40;94294.00;;;;7369968;19;20149;-75
2023/06/04 08:41:34;;;;;;;12.07;3.50;;;21.30;1.00;23.30;94298.00;;;;7360844;19;20902;-74
2023/06/04 08:44:06;;;;;;;6.00;2.92;;;21.40;99.90;23.60;94288.00;;;;7371445;19;20129;-74
2023/06/04 08:46:41;;;;;;;3.67;2.95;;;21.60;99.90;23.80;94304.00;;;;7371412;19;20198;-75
2023/06/04 08:49:11;;;;;;;5.05;3.20;;;21.80;99.90;23.80;94311.00;;;;7371590;19;20517;-74
2023/06/04 08:51:46;;;;;;;4.65;2.88;;;21.90;99.90;23.90;94280.00;;;;7371127;19;20595;-74
2023/06/04 08:54:14;;;;;;;3.55;3.00;;;21.90;99.90;24.10;94291.00;;;;7369220;19;20121;-75
2023/06/04 08:56:51;;;;;;;4.50;2.80;;;21.90;99.90;24.30;94298.00;;;;7371012;19;20212;-76
2023/06/04 08:59:19;;;;;;;7.95;3.33;;;22.00;99.90;24.70;94309.00;;;;7369724;19;20137;-73
2023/06/04 09:01:55;;;;;;;11.48;3.45;;;22.10;99.90;25.00;94308.00;;;;7369297;19;20128;-74
2023/06/04 09:04:30;;;;;;;3.67;2.92;;;22.30;99.90;24.90;94311.00;;;;7370721;19;20169;-74
2023/06/04 09:07:14;;;;;;;4.90;2.88;;;22.40;99.90;24.50;94312.00;;;;7373541;19;20128;-74
2023/06/04 09:09:50;;;;;;;5.95;3.20;;;22.40;99.90;24.90;94307.00;;;;7372385;19;20188;-74
2023/06/04 09:12:46;;;;;;;3.85;2.95;;;22.40;99.90;25.00;94309.00;;;;7375351;19;20133;-74
2023/06/04 09:15:30;;;;;;;4.78;3.17;;;22.50;99.90;25.20;94297.00;;;;7369988;19;20490;-75
2023/06/04 09:18:04;;;;;;;4.75;3.00;;;22.60;99.90;24.60;94312.00;;;;7369815;19;20148;-75
2023/06/04 09:20:38;;;;;;;11.57;2.92;;;22.40;99.90;24.60;94308.00;;;;7366540;19;20132;-74
2023/06/04 09:23:15;;;;;;;3.55;2.75;;;22.30;99.90;24.40;94318.00;;;;7372448;19;20125;-74
2023/06/04 09:25:46;;;;;;;3.72;3.30;;;22.10;99.90;24.50;94318.00;;;;7371547;19;20213;-74
2023/06/04 09:28:20;;;;;;;5.80;3.03;;;22.20;99.90;24.40;94274.00;;;;7371157;19;20191;-76
2023/06/04 09:30:54;;;;;;;3.90;2.85;;;22.40;99.90;24.90;94314.00;;;;7371113;19;20498;-75
2023/06/04 09:33:23;;;;;;;5.47;3.40;;;22.60;99.90;24.90;94325.00;;;;7372303;19;20125;-74
2023/06/04 09:35:58;;;;;;;7.05;3.13;;;22.80;99.90;24.70;94325.00;;;;7368362;19;20150;-74
2023/06/04 09:38:35;;;;;;;8.30;2.97;;;23.20;99.90;24.50;94310.00;;;;7370388;19;20145;-74
2023/06/04 09:41:21;;;;;;;4.95;2.95;;;23.10;99.90;24.90;94323.00;;;;7372895;19;20463;-74
2023/06/04 09:44:03;;;;;;;4.30;3.63;;;23.20;99.90;24.70;94321.00;;;;7372258;19;20129;-74
2023/06/04 09:46:37;;;;;;;5.07;3.65;;;23.30;99.90;25.00;94329.00;;;;7368417;19;20156;-74
2023/06/04 09:49:06;;;;;;;8.40;3.40;;;23.20;99.90;25.20;94313.00;;;;7365158;19;20133;-75
2023/06/04 09:51:48;;;;;;;6.75;3.40;;;23.30;99.90;25.20;94329.00;;;;7371924;19;21782;-75
2023/06/04 09:54:17;;;;;;;5.00;3.13;;;23.30;99.90;25.50;94325.00;;;;7368691;19;20596;-74
2023/06/04 09:56:51;;;;;;;5.40;3.22;;;23.10;99.90;25.80;94310.00;;;;7367125;19;20182;-75
2023/06/04 09:59:20;;;;;;;7.88;3.78;;;23.20;99.90;25.30;94273.00;;;;7370027;19;20148;-75
2023/06/04 10:01:59;;;;;;;7.85;3.28;;;23.40;99.90;26.00;94327.00;;;;7369929;19;20196;-75
2023/06/04 10:04:35;;;;;;;3.42;2.92;;;23.80;99.90;26.00;94314.00;;;;7369656;19;20156;-74
2023/06/04 10:07:17;;;;;;;10.60;3.78;;;24.00;99.90;25.80;94309.00;;;;7370317;19;20129;-75
2023/06/04 10:09:52;;;;;;;4.95;3.58;;;24.10;99.90;25.90;94335.00;;;;7369762;19;20171;-74
2023/06/04 10:12:36;;;;;;;6.10;3.40;;;24.10;99.90;25.90;94328.00;;;;7367248;19;20628;-74
2023/06/04 10:15:13;;;;;;;6.30;3.05;;;24.20;99.90;26.20;94318.00;;;;7368597;19;20597;-75
2023/06/04 10:17:50;;;;;;;5.50;3.22;;;24.30;99.90;26.40;94328.00;;;;7369943;19;20241;-75
2023/06/04 10:20:20;;;;;;;9.40;3.15;;;24.60;99.90;26.10;94321.00;;;;7369836;19;20133;-76
2023/06/04 10:23:01;;;;;;;5.50;3.58;;;24.80;99.90;26.10;94320.00;;;;7369075;19;20461;-75
2023/06/04 10:25:35;;;;;;;5.53;3.30;;;24.80;99.90;25.90;94309.00;;;;7372072;19;20139;-76
2023/06/04 10:28:04;;;;;;;6.25;3.30;;;25.20;99.90;26.80;94325.00;;;;7368347;19;20163;-76
2023/06/04 10:30:38;;;;;;;4.75;3.05;;;25.40;99.90;27.40;94309.00;;;;7369590;19;20622;-76
2023/06/04 10:33:06;;;;;;;4.30;3.15;;;25.60;99.90;26.70;94320.00;;;;7368520;19;20159;-75
2023/06/04 10:35:43;;;;;;;4.60;3.33;;;25.90;99.90;27.10;94314.00;;;;7370011;19;21984;-75
2023/06/04 10:38:18;;;;;;;7.00;3.83;;;26.00;99.90;26.40;94325.00;;;;7368903;19;20152;-76
2023/06/04 10:40:47;;;;;;;5.82;4.10;;;25.90;99.90;27.40;94330.00;;;;7363055;19;20163;-76
2023/06/04 10:43:21;;;;;;;5.85;3.70;;;25.80;99.90;27.20;94315.00;;;;7368309;19;20503;-76
2023/06/04 10:45:49;;;;;;;7.57;3.40;;;25.70;99.90;27.70;94327.00;;;;7370038;19;20481;-76
2023/06/04 10:48:23;;;;;;;8.40;4.10;;;25.90;99.90;28.00;94320.00;;;;7368100;19;20805;-75
2023/06/04 10:50:58;;;;;;;7.88;3.75;;;26.00;99.90;28.30;94321.00;;;;7365919;19;20593;-77
2023/06/04 10:53:37;;;;;;;4.80;3.38;;;26.20;99.90;28.00;94327.00;;;;7368600;19;20140;-75
2023/06/04 10:56:11;;;;;;;4.03;3.40;;;26.20;99.90;27.20;94322.00;;;;7370170;19;20140;-76
2023/06/04 10:58:38;;;;;;;6.00;3.67;;;26.50;99.90;27.60;94322.00;;;;7369073;19;20236;-75
2023/06/04 11:01:28;;;;;;;6.15;3.90;;;26.90;99.90;27.80;94322.00;;;;7367223;19;21331;-75
2023/06/04 11:04:10;;;;;;;9.10;3.80;;;26.90;99.90;27.80;94328.00;;;;7368059;19;20247;-75
2023/06/04 11:06:44;;;;;;;7.90;3.60;;;26.70;99.90;27.90;94315.00;;;;7367105;19;20124;-76
2023/06/04 11:09:19;;;;;;;5.20;4.00;;;26.40;99.90;27.70;94312.00;;;;7367384;19;20157;-76
2023/06/04 11:11:58;;;;;;;5.68;3.83;;;26.30;99.90;27.60;94312.00;;;;7367502;19;20131;-75
2023/06/04 11:14:32;;;;;;;6.88;3.78;;;26.40;99.90;27.50;94317.00;;;;7367500;19;20147;-76
2023/06/04 11:17:11;;;;;;;8.00;4.07;;;26.50;99.90;27.80;94321.00;;;;7368433;19;20227;-75
2023/06/04 11:19:46;;;;;;;4.10;3.53;;;26.30;99.90;27.40;94325.00;;;;7367815;19;20157;-76
2023/06/04 11:22:14;;;;;;;5.28;3.85;;;26.30;99.90;27.30;94315.00;;;;7367740;19;20494;-75
2023/06/04 11:24:48;;;;;;;7.18;3.80;;;26.40;99.90;27.50;94316.00;;;;7367966;19;20206;-76